Nearby METAR Reports

 

PAEN - Kenai, Alaska, USA
Distance from station: ESE 2mi, 4km
Updated: Sun, 19-Aug-2018 9:53pm AKDT
Partly cloudy
Partly cloudy
 Wind from NE
Wind: NE 6 mph , 9 km/h
Temperature: 57°F , 14°C
Dew Point: 50°F , 10°C
Humidity: 77%
Barometer: 30.07 inHg , 1018.3 hPa
Clouds: Partly cloudy
Visibility: 10 miles , 16 km
Cloud details: Partly cloudy 7000 ft
Partly cloudy 9000 ft
2018/08/20 05:53 PAEN 200553Z AUTO 04005KT 10SM SCT070 SCT090 14/10 A3007 RMK AO2 SLP184 60000 T01390100 10167 20139 56001 TSNO
PASX - Soldotna, Alaska, USA
Distance from station: SE 12mi, 19km
Updated: Sun, 19-Aug-2018 9:56pm AKDT
Few Clouds
Few Clouds
 Wind from N
Wind: N 3 mph , 6 km/h
Temperature: 59°F , 15°C
Dew Point: 52°F , 11°C
Humidity: 77%
Barometer: 30.09 inHg , 1019 hPa
Clouds: Few Clouds
Visibility: 10 miles , 16 km
Cloud details: Few Clouds 6500 ft
2018/08/20 05:56 PASX 200556Z AUTO 36003KT 10SM FEW065 15/11 A3009 RMK AO2 SLP198 60000 T01500106 10178 20150 53003
 
PANC - Anchorage Intl, Alaska, USA
Distance from station: NE 59mi, 96km
Updated: Sun, 19-Aug-2018 9:53pm AKDT
Mostly cloudy
Mostly cloudy
 Wind from NNW
Wind: NNW 3 mph , 6 km/h
Temperature: 55°F , 13°C
Dew Point: 54°F , 12°C
Humidity: 94%
Barometer: 30.13 inHg , 1020.3 hPa
Clouds: Mostly cloudy
Visibility: 10 miles , 16 km
Cloud details: Partly cloudy 500 ft
Mostly cloudy 7500 ft
Mostly cloudy 9000 ft
Mostly cloudy 20000 ft
2018/08/20 05:53 PANC 200553Z 33003KT 10SM SCT005 BKN075 BKN090 BKN200 13/12 A3013 RMK AO2 SLP202 60003 T01330122 10144 20133 55004
PALH - Anchorage/Lake H, Alaska, USA
Distance from station: NE 61mi, 99km
Updated: Sun, 19-Aug-2018 9:53pm AKDT
Mostly cloudy
Mostly cloudy
 Wind from N
Wind: N 3 mph , 6 km/h
Temperature: 55°F , 13°C
Dew Point: 54°F , 12°C
Humidity: 94%
Barometer: 30.14 inHg , 1020.7 hPa
Clouds: Mostly cloudy
Visibility: 10 miles , 16 km
Cloud details: Few Clouds 500 ft
Mostly cloudy 8000 ft
2018/08/20 05:53 PALH 200553Z 36003KT 10SM FEW005 BKN080 13/12 A3014 RMK AO2 SLP205 60003 T01330122 10144 20133 55004
 
PAHO - Homer, Alaska, USA
Distance from station: S 66mi, 106km
Updated: Sun, 19-Aug-2018 9:53pm AKDT
Overcast
Overcast
 Wind from SW
Wind: SW 6 mph , 9 km/h
Temperature: 61°F , 16°C
Dew Point: 52°F , 11°C
Humidity: 72%
Barometer: 30.05 inHg , 1017.6 hPa
Clouds: Overcast
Visibility: 10 miles , 16 km
Cloud details: Overcast 4900 ft
2018/08/20 05:53 PAHO 200553Z AUTO 22005KT 10SM OVC049 16/11 A3005 RMK AO2 SLP176 T01610111 10189 20161 53007 TSNO
PAMR - Anchorage/Merril, Alaska, USA
Distance from station: NE 66mi, 106km
Updated: Sun, 19-Aug-2018 9:53pm AKDT
Mostly cloudy
Mostly cloudy
 Wind from calm
Wind: Calm
Temperature: 55°F , 13°C
Dew Point: 55°F , 13°C
Humidity: 100%
Barometer: 30.13 inHg , 1020.3 hPa
Clouds: Mostly cloudy
Visibility: 10 miles , 16 km
Cloud details: Few Clouds 700 ft
Partly cloudy 1100 ft
Mostly cloudy 8000 ft
2018/08/20 05:53 PAMR 200553Z 00000KT 10SM FEW007 SCT011 BKN080 13/13 A3013 RMK AO2 SLP202 60003 T01330133 10139 20128 55004
 
PAED - Elmendorf Afb, Alaska, USA
Distance from station: NE 69mi, 110km
Updated: Sun, 19-Aug-2018 9:56pm AKDT
Overcast
Overcast
 Wind from calm
Wind: Calm
Temperature: 55°F , 13°C
Dew Point: 55°F , 13°C
Humidity: 100%
Barometer: 30.12 inHg , 1020 hPa
Clouds: Overcast
Visibility: 10 miles , 16 km
Cloud details: Few Clouds 900 ft
Few Clouds 1300 ft
Overcast 7500 ft
2018/08/20 05:56 PAED 200556Z 00000KT 10SM FEW009 FEW013 OVC075 13/13 A3012 RMK AO2A SLP195 60003 T01280128 10137 20128 55004
PAWD - Seward, Alaska, USA
Distance from station: ESE 71mi, 115km
Updated: Sun, 19-Aug-2018 10:40pm AKDT
Overcast
Overcast
 Wind from calm
Wind: Calm
Temperature: 55°F , 13°C
Dew Point: 55°F , 13°C
Humidity: 100%
Barometer: 30.13 inHg , 1020.3 hPa
Clouds: Overcast
Visibility: 10 miles , 16 km
Cloud details: Mostly cloudy 2800 ft
Mostly cloudy 3600 ft
Overcast 4500 ft
2018/08/20 06:40 PAWD 200640Z AUTO 00000KT 10SM BKN028 BKN036 OVC045 13/13 A3013 RMK AO2 T01330133 TSNO
 
PASC - Deadhorse, Alaska, USA
Distance from station: ENE 670mi, 1078km
Updated: Sun, 19-Aug-2018 10:38pm AKDT
Mist, Overcast
Mist, Overcast
 Wind from ENE
Wind: ENE 6 mph , 9 km/h
Temperature: 48°F , 9°C
Wind Chill: 45°F , 7°C
Dew Point: 46°F , 8°C
Humidity: 94%
Barometer: 29.97 inHg , 1014.9 hPa
Summary: Mist
Clouds: Overcast
Visibility: 2 1/2 miles , 4 km
Cloud details: Overcast 200 ft
2018/08/20 06:38 PASC 200638Z 06005KT 2 1/2SM BR OVC002 09/08 A2997 RMK AO2 T00890078
PAAD - Point Thomson, Alaska, USA
Distance from station: ENE 680mi, 1094km
Updated: Sun, 19-Aug-2018 10:35pm AKDT
Fog, Overcast
Fog, Overcast
 Wind from ESE
Wind: ESE 3 mph , 6 km/h
Temperature: 43°F , 6°C
Dew Point: 43°F , 6°C
Humidity: 100%
Barometer: 29.98 inHg , 1015.2 hPa
Summary: Fog
Clouds: Overcast
Visibility: 1/4 mile , 0.4 km
Cloud details: Overcast 200 ft
2018/08/20 06:35 PAAD 200635Z AUTO 11003KT 1/4SM FG OVC002 06/06 A2998 RMK AO2 T00580058


kenaipeople.com website

Dans Automotive

Lower Peninsula Power Sports

Freddies RoadHouse

Alaska Weather Net

United States Weather Group